Hartsville Rgnl Information

FAA: HVS - ICAO: KHVS

Hartsville Rgnl (Airport) Location

State South Carolina
County Darlington
City Hartsville
Hartsville Rgnl (Airport) is 3 miles northwest of Hartsville, SC.
Latitude 34-24-11.1000N
Longitude 080-07-09.2000W
Elevation 363ft

Hartsville Rgnl METARs

METAR KHVS 251755Z AUTO VRB03KT 10SM BKN090 12/03 A2997 RMK AO2
Altimeter 29.97"
Temperature 12.0°C (53.6°F)
Wind 0° at 3KT
Clouds broken at 9,000ft
Visibility 10.0mi
Time observed: 2022-01-25T17:55:00Z

Hartsville Rgnl (Airport) Details

Status Operational
Activation April 1959
Ownership Public
Usage Public
Chart CHARLOTTE
ATC on-site No
Beacon schedule sunset-sunrise
Beacon color clear green

Hartsville Rgnl (Airport) Contacts

Owner CITY OF HARTSVILLE
Owner address PO BOX 2497, HARTSVILLE, SC 29550
Owner phone 843-383-3007
Manager MRS. RICHARD C. MIR
Manager address 3817 SE 158TH TER, WEIRSDALE, FL 32195
Manager phone 352-259-0408

Hartsville Rgnl Radio Frequencies

Hartsville Rgnl (Airport) Radio Frequencies

UNICOM 122.8
Common traffic advisory frequency (CTAF) 122.8